Time;durP1;ratioP1;P1;durP2;ratioP2;P2;SDS_P1;SDS_P2;PMS_P1;PMS_P2;Temp;Humidity;BMP_temperature;BMP_pressure;BME280_temperature;BME280_humidity;BME280_pressure;Samples;Min_cycle;Max_cycle;Signal;HPM_P1;HPM_P2
2023/12/23 00:00:13;;;;;;;23.70;2.60;;;;;;;;;;4986515;28;20096;-74
2023/12/23 00:02:39;;;;;;;18.27;2.70;;;;;;;;;;4983379;28;20035;-74
2023/12/23 00:05:05;;;;;;;21.90;3.15;;;;;;;;;;4986017;28;20037;-74
2023/12/23 00:07:31;;;;;;;18.10;2.65;;;;;;;;;;4984003;28;20046;-74
2023/12/23 00:09:57;;;;;;;21.33;2.58;;;;;;;;;;4987320;28;20061;-74
2023/12/23 00:12:23;;;;;;;17.00;2.47;;;;;;;;;;4982881;28;20050;-74
2023/12/23 00:14:49;;;;;;;18.83;2.28;;;;;;;;;;4983385;28;20057;-74
2023/12/23 00:17:16;;;;;;;24.13;3.22;;;;;;;;;;4986464;28;20043;-74
2023/12/23 00:19:42;;;;;;;18.45;2.47;;;;;;;;;;4987181;28;20050;-74
2023/12/23 00:22:08;;;;;;;20.77;2.53;;;;;;;;;;4987084;28;20086;-74
2023/12/23 00:24:34;;;;;;;17.08;2.53;;;;;;;;;;4985504;28;20484;-74
2023/12/23 00:27:00;;;;;;;20.33;3.47;;;;;;;;;;4991969;28;20488;-74
2023/12/23 00:29:26;;;;;;;17.08;2.40;;;;;;;;;;4988284;28;20515;-74
2023/12/23 00:31:52;;;;;;;15.65;2.20;;;;;;;;;;4993854;28;20053;-74
2023/12/23 00:34:18;;;;;;;21.50;2.75;;;;;;;;;;4993172;28;20042;-74
2023/12/23 00:36:44;;;;;;;16.55;2.05;;;;;;;;;;4994761;28;20043;-74
2023/12/23 00:39:10;;;;;;;13.95;2.35;;;;;;;;;;4976811;28;20089;-74
2023/12/23 00:41:37;;;;;;;23.88;2.65;;;;;;;;;;4994582;28;20042;-74
2023/12/23 00:44:03;;;;;;;16.40;2.28;;;;;;;;;;4994102;28;20108;-74
2023/12/23 00:46:29;;;;;;;17.08;2.17;;;;;;;;;;4993942;28;20117;-74
2023/12/23 00:48:55;;;;;;;16.98;2.88;;;;;;;;;;4994250;28;20042;-74
2023/12/23 00:51:22;;;;;;;16.77;2.42;;;;;;;;;;4993929;28;20042;-74
2023/12/23 00:53:48;;;;;;;13.93;2.03;;;;;;;;;;4990829;28;20049;-74
2023/12/23 00:56:32;;;;;;;18.13;2.50;;;;;;;;;;4991540;28;20428;-74
2023/12/23 00:58:58;;;;;;;15.45;2.03;;;;;;;;;;4975284;28;20046;-74
2023/12/23 01:01:24;;;;;;;15.63;2.20;;;;;;;;;;4992289;28;20046;-74
2023/12/23 01:03:50;;;;;;;16.63;2.42;;;;;;;;;;4950925;28;20074;-74
2023/12/23 01:06:16;;;;;;;16.38;2.45;;;;;;;;;;4992019;28;20053;-74
2023/12/23 01:08:42;;;;;;;22.48;2.70;;;;;;;;;;4982329;28;20047;-74
2023/12/23 01:11:10;;;;;;;14.77;2.33;;;;;;;;;;4970192;28;20412;-74
2023/12/23 01:13:36;;;;;;;17.50;2.50;;;;;;;;;;4993367;28;20134;-74
2023/12/23 01:16:03;;;;;;;18.08;2.63;;;;;;;;;;4992611;28;20419;-74
2023/12/23 01:18:29;;;;;;;19.77;3.10;;;;;;;;;;4993077;28;20043;-74
2023/12/23 01:20:56;;;;;;;19.98;2.85;;;;;;;;;;4993483;28;20082;-74
2023/12/23 01:23:22;;;;;;;19.90;2.38;;;;;;;;;;4993109;28;20495;-74
2023/12/23 01:25:48;;;;;;;21.27;2.75;;;;;;;;;;4991630;28;20459;-74
2023/12/23 01:28:14;;;;;;;16.83;2.55;;;;;;;;;;4985090;28;20389;-74
2023/12/23 01:30:40;;;;;;;13.68;2.60;;;;;;;;;;4992064;28;20502;-74
2023/12/23 01:33:07;;;;;;;18.10;3.00;;;;;;;;;;4993412;28;20042;-74
2023/12/23 01:35:34;;;;;;;22.10;3.08;;;;;;;;;;4992990;28;20108;-74
2023/12/23 01:38:00;;;;;;;17.73;2.30;;;;;;;;;;4993182;28;20311;-74
2023/12/23 01:40:26;;;;;;;19.90;2.40;;;;;;;;;;4992822;28;20050;-74
2023/12/23 01:42:52;;;;;;;21.88;2.60;;;;;;;;;;4993401;28;20054;-74
2023/12/23 01:45:18;;;;;;;23.92;3.05;;;;;;;;;;4993134;28;20420;-74
2023/12/23 01:47:45;;;;;;;20.88;2.78;;;;;;;;;;4993448;28;20069;-74
2023/12/23 01:50:11;;;;;;;16.23;2.42;;;;;;;;;;4993346;28;20045;-74
2023/12/23 01:52:38;;;;;;;16.27;2.67;;;;;;;;;;4991100;28;20046;-74
2023/12/23 01:55:08;;;;;;;19.67;2.53;;;;;;;;;;4992699;28;20480;-74
2023/12/23 01:57:35;;;;;;;16.93;2.60;;;;;;;;;;4993127;28;20122;-74
2023/12/23 02:00:01;;;;;;;22.08;2.80;;;;;;;;;;4959840;28;20173;-74
2023/12/23 02:02:30;;;;;;;21.88;2.33;;;;;;;;;;4992866;28;20046;-74
2023/12/23 02:04:56;;;;;;;19.00;2.55;;;;;;;;;;4992523;28;20042;-74
2023/12/23 02:07:23;;;;;;;23.42;2.53;;;;;;;;;;4992851;28;20042;-74
2023/12/23 02:09:49;;;;;;;21.30;3.03;;;;;;;;;;4993214;28;20065;-74
2023/12/23 02:12:15;;;;;;;21.48;2.55;;;;;;;;;;4986325;28;20038;-74
2023/12/23 02:14:43;;;;;;;25.42;2.88;;;;;;;;;;4978716;28;20066;-74
2023/12/23 02:17:10;;;;;;;20.52;3.05;;;;;;;;;;4992012;28;20044;-74
2023/12/23 02:19:36;;;;;;;14.45;2.17;;;;;;;;;;4992425;28;20047;-74
2023/12/23 02:22:02;;;;;;;16.17;1.90;;;;;;;;;;4992833;28;20050;-74
2023/12/23 02:24:28;;;;;;;15.80;2.17;;;;;;;;;;4975587;28;20046;-74
2023/12/23 02:26:59;;;;;;;13.38;1.80;;;;;;;;;;4990778;28;20128;-74
2023/12/23 02:29:26;;;;;;;13.88;1.85;;;;;;;;;;4990456;28;20049;-74
2023/12/23 02:31:52;;;;;;;12.23;1.83;;;;;;;;;;4991674;28;20046;-74
2023/12/23 02:34:19;;;;;;;12.93;2.10;;;;;;;;;;4985461;28;20047;-74
2023/12/23 02:36:45;;;;;;;17.73;2.20;;;;;;;;;;4992402;28;20412;-74
2023/12/23 02:39:11;;;;;;;16.85;2.22;;;;;;;;;;4992256;28;20052;-74
2023/12/23 02:41:37;;;;;;;16.23;1.95;;;;;;;;;;4993164;28;20050;-74
2023/12/23 02:44:03;;;;;;;19.50;2.08;;;;;;;;;;4992534;28;20046;-74
2023/12/23 02:46:29;;;;;;;13.50;2.30;;;;;;;;;;4993184;28;20046;-74
2023/12/23 02:48:56;;;;;;;16.52;2.70;;;;;;;;;;4992851;28;20056;-74
2023/12/23 02:51:22;;;;;;;19.23;2.40;;;;;;;;;;4975440;28;20507;-74
2023/12/23 02:53:48;;;;;;;15.48;2.13;;;;;;;;;;4992734;28;20515;-74
2023/12/23 02:56:14;;;;;;;17.85;2.28;;;;;;;;;;4993134;28;20130;-74
2023/12/23 02:58:40;;;;;;;11.85;1.67;;;;;;;;;;4989338;28;20045;-74
2023/12/23 03:01:07;;;;;;;11.80;1.58;;;;;;;;;;4991582;28;20050;-74
2023/12/23 03:03:33;;;;;;;18.25;2.40;;;;;;;;;;4990153;28;20054;-74
2023/12/23 03:06:00;;;;;;;13.00;1.60;;;;;;;;;;4996023;28;20054;-74
2023/12/23 03:08:26;;;;;;;17.33;2.10;;;;;;;;;;4978868;28;20831;-74
2023/12/23 03:10:52;;;;;;;15.63;1.92;;;;;;;;;;4996194;28;20050;-74
2023/12/23 03:13:18;;;;;;;10.95;1.27;;;;;;;;;;4996098;28;20046;-74
2023/12/23 03:15:44;;;;;;;18.60;1.92;;;;;;;;;;4996293;28;20058;-74
2023/12/23 03:18:10;;;;;;;16.00;2.40;;;;;;;;;;4995547;28;20097;-74
2023/12/23 03:20:36;;;;;;;13.98;2.08;;;;;;;;;;4978566;28;20046;-74
2023/12/23 03:23:05;;;;;;;13.02;1.63;;;;;;;;;;4995714;28;20042;-74
2023/12/23 03:25:31;;;;;;;17.40;1.63;;;;;;;;;;4995692;28;20046;-74
2023/12/23 03:27:58;;;;;;;15.60;1.98;;;;;;;;;;4994612;28;20042;-74
2023/12/23 03:30:24;;;;;;;13.50;1.70;;;;;;;;;;4995233;28;20042;-74
2023/12/23 03:32:50;;;;;;;15.90;2.08;;;;;;;;;;4960339;28;20058;-74
2023/12/23 03:35:16;;;;;;;12.40;1.80;;;;;;;;;;4984314;28;20058;-74
2023/12/23 03:37:42;;;;;;;13.23;1.70;;;;;;;;;;4985657;28;20544;-74
2023/12/23 03:40:08;;;;;;;13.10;1.75;;;;;;;;;;4994934;28;20172;-74
2023/12/23 03:42:35;;;;;;;11.75;1.40;;;;;;;;;;4992998;28;20119;-74
2023/12/23 03:45:01;;;;;;;14.60;1.90;;;;;;;;;;4995693;28;20046;-74
2023/12/23 03:47:27;;;;;;;11.20;1.73;;;;;;;;;;4995387;28;20046;-74
2023/12/23 03:49:53;;;;;;;15.15;1.85;;;;;;;;;;4995648;28;20077;-74
2023/12/23 03:52:19;;;;;;;11.82;1.75;;;;;;;;;;4994475;28;20097;-74
2023/12/23 03:54:45;;;;;;;14.65;2.20;;;;;;;;;;4995484;28;20073;-74
2023/12/23 03:57:11;;;;;;;14.63;1.48;;;;;;;;;;4995302;28;20038;-74
2023/12/23 03:59:39;;;;;;;10.80;1.60;;;;;;;;;;4995147;28;20054;-74
2023/12/23 04:02:05;;;;;;;15.07;1.85;;;;;;;;;;4994883;28;20061;-74
2023/12/23 04:04:32;;;;;;;11.52;1.75;;;;;;;;;;4994280;28;20089;-74
2023/12/23 04:06:58;;;;;;;18.15;1.90;;;;;;;;;;4995056;28;20492;-74
2023/12/23 04:09:24;;;;;;;15.63;1.70;;;;;;;;;;4991746;28;20401;-74
2023/12/23 04:11:50;;;;;;;14.45;1.88;;;;;;;;;;4977427;28;20057;-74
2023/12/23 04:14:16;;;;;;;15.60;1.90;;;;;;;;;;4984862;28;20086;-74
2023/12/23 04:16:42;;;;;;;13.55;2.10;;;;;;;;;;4987450;28;20057;-74
2023/12/23 04:19:08;;;;;;;15.93;1.75;;;;;;;;;;4994231;28;20057;-74
2023/12/23 04:21:34;;;;;;;12.95;1.85;;;;;;;;;;4994084;28;20074;-74
2023/12/23 04:24:00;;;;;;;18.55;2.00;;;;;;;;;;4994653;28;20042;-74
2023/12/23 04:26:27;;;;;;;17.05;1.67;;;;;;;;;;4990423;28;20058;-74
2023/12/23 04:28:53;;;;;;;15.73;1.98;;;;;;;;;;4982366;28;20412;-74
2023/12/23 04:31:19;;;;;;;13.68;1.63;;;;;;;;;;4994010;28;20412;-74
2023/12/23 04:33:45;;;;;;;15.45;1.80;;;;;;;;;;4988807;28;20077;-74
2023/12/23 04:36:12;;;;;;;13.20;1.80;;;;;;;;;;4994187;28;20046;-74
2023/12/23 04:38:39;;;;;;;14.70;2.00;;;;;;;;;;4994019;28;20050;-74
2023/12/23 04:41:05;;;;;;;13.48;1.85;;;;;;;;;;4990612;28;20043;-74
2023/12/23 04:43:31;;;;;;;16.42;1.60;;;;;;;;;;4971767;28;20050;-74
2023/12/23 04:45:57;;;;;;;18.52;1.90;;;;;;;;;;4994038;28;20085;-74
2023/12/23 04:48:24;;;;;;;18.58;2.08;;;;;;;;;;4994198;28;20046;-74
2023/12/23 04:50:50;;;;;;;11.43;2.03;;;;;;;;;;4994214;28;20046;-74
2023/12/23 04:53:17;;;;;;;12.48;1.70;;;;;;;;;;4993166;28;20049;-74
2023/12/23 04:55:44;;;;;;;12.10;1.83;;;;;;;;;;4957548;28;20046;-74
2023/12/23 04:58:10;;;;;;;12.68;1.70;;;;;;;;;;4975385;28;20053;-74
2023/12/23 05:00:36;;;;;;;15.20;1.98;;;;;;;;;;4979995;28;20042;-74
2023/12/23 05:03:02;;;;;;;14.27;1.42;;;;;;;;;;4993262;28;20102;-74
2023/12/23 05:05:28;;;;;;;11.43;1.50;;;;;;;;;;4985571;28;20484;-74
2023/12/23 05:07:54;;;;;;;14.57;1.85;;;;;;;;;;4985045;28;20444;-74
2023/12/23 05:10:20;;;;;;;14.88;1.65;;;;;;;;;;4981619;28;20444;-74
2023/12/23 05:12:46;;;;;;;12.93;1.40;;;;;;;;;;4988586;28;20046;-74
2023/12/23 05:15:12;;;;;;;10.55;1.45;;;;;;;;;;4983065;28;20061;-74
2023/12/23 05:17:38;;;;;;;12.80;1.50;;;;;;;;;;4986748;28;20046;-74
2023/12/23 05:20:05;;;;;;;15.60;1.45;;;;;;;;;;4974799;28;20051;-74
2023/12/23 05:22:31;;;;;;;15.00;1.83;;;;;;;;;;4993022;28;20046;-74
2023/12/23 05:24:57;;;;;;;12.93;1.45;;;;;;;;;;4993635;28;20069;-74
2023/12/23 05:27:23;;;;;;;12.10;1.40;;;;;;;;;;4980893;28;20049;-73
2023/12/23 05:29:49;;;;;;;14.98;1.50;;;;;;;;;;4985888;28;20082;-74
2023/12/23 05:32:15;;;;;;;15.15;1.60;;;;;;;;;;4983781;28;20101;-74
2023/12/23 05:34:41;;;;;;;5.72;1.10;;;;;;;;;;4986527;28;20058;-74
2023/12/23 05:37:07;;;;;;;10.68;1.13;;;;;;;;;;4990939;28;20205;-74
2023/12/23 05:39:33;;;;;;;11.63;1.30;;;;;;;;;;4992905;28;20397;-74
2023/12/23 05:41:59;;;;;;;11.65;1.40;;;;;;;;;;4993589;28;20155;-74
2023/12/23 05:44:26;;;;;;;8.48;1.48;;;;;;;;;;4993654;28;20050;-74
2023/12/23 05:46:52;;;;;;;9.63;1.02;;;;;;;;;;4993029;28;20042;-74
2023/12/23 05:49:18;;;;;;;10.15;1.38;;;;;;;;;;4993783;28;20046;-74
2023/12/23 05:51:44;;;;;;;12.52;1.50;;;;;;;;;;4987438;28;20039;-74
2023/12/23 05:54:10;;;;;;;8.20;1.40;;;;;;;;;;4986577;28;20129;-74
2023/12/23 05:56:36;;;;;;;9.35;3.10;;;;;;;;;;4991918;28;20043;-74
2023/12/23 05:59:02;;;;;;;56.30;19.73;;;;;;;;;;4993366;28;20051;-74
2023/12/23 06:01:28;;;;;;;144.13;41.63;;;;;;;;;;4993384;28;20097;-74
2023/12/23 06:03:54;;;;;;;27.00;9.70;;;;;;;;;;4992707;28;20042;-74
2023/12/23 06:06:20;;;;;;;11.27;2.70;;;;;;;;;;4974221;28;20054;-74
2023/12/23 06:08:47;;;;;;;16.10;6.72;;;;;;;;;;4980414;28;20051;-74
2023/12/23 06:11:13;;;;;;;27.15;19.10;;;;;;;;;;4992902;28;20050;-74
2023/12/23 06:13:40;;;;;;;16.42;5.22;;;;;;;;;;4991393;28;20057;-74
2023/12/23 06:16:06;;;;;;;8.02;2.53;;;;;;;;;;4991957;28;20076;-74
2023/12/23 06:18:33;;;;;;;7.47;1.80;;;;;;;;;;4988386;28;20038;-74
2023/12/23 06:20:59;;;;;;;5.05;1.27;;;;;;;;;;4980604;28;20124;-74
2023/12/23 06:23:25;;;;;;;12.60;4.85;;;;;;;;;;4992610;28;20053;-74
2023/12/23 06:25:51;;;;;;;29.13;11.25;;;;;;;;;;4989850;28;20042;-74
2023/12/23 06:28:17;;;;;;;7.00;1.95;;;;;;;;;;4991722;28;20054;-74
2023/12/23 06:30:43;;;;;;;9.90;2.60;;;;;;;;;;4982464;28;20402;-74
2023/12/23 06:33:09;;;;;;;10.45;1.70;;;;;;;;;;4983723;28;20035;-74
2023/12/23 06:35:36;;;;;;;13.60;4.10;;;;;;;;;;4984875;28;20106;-74
2023/12/23 06:38:02;;;;;;;43.40;20.83;;;;;;;;;;4987375;28;20049;-74
2023/12/23 06:40:29;;;;;;;26.15;11.60;;;;;;;;;;4988157;28;20321;-74
2023/12/23 06:42:55;;;;;;;10.85;3.38;;;;;;;;;;4989780;28;20047;-74
2023/12/23 06:45:21;;;;;;;10.43;5.47;;;;;;;;;;4987132;28;20496;-74
2023/12/23 06:47:47;;;;;;;5.60;2.08;;;;;;;;;;4987488;28;20047;-74
2023/12/23 06:50:14;;;;;;;5.95;2.10;;;;;;;;;;4987591;28;20065;-74
2023/12/23 06:52:41;;;;;;;6.70;2.28;;;;;;;;;;4987836;28;20073;-74
2023/12/23 06:55:07;;;;;;;5.22;1.60;;;;;;;;;;4986429;28;20046;-74
2023/12/23 06:57:33;;;;;;;5.43;2.05;;;;;;;;;;4987265;28;20038;-74
2023/12/23 06:59:59;;;;;;;3.03;0.98;;;;;;;;;;4984651;28;20035;-74
2023/12/23 07:02:26;;;;;;;2.50;0.90;;;;;;;;;;4994113;28;20384;-74
2023/12/23 07:04:52;;;;;;;5.47;0.93;;;;;;;;;;4992093;28;20443;-74
2023/12/23 07:07:18;;;;;;;3.67;1.10;;;;;;;;;;4995074;28;20133;-74
2023/12/23 07:09:44;;;;;;;6.50;1.20;;;;;;;;;;4981531;28;20085;-74
2023/12/23 07:12:10;;;;;;;5.95;1.10;;;;;;;;;;4985772;28;20050;-74
2023/12/23 07:14:36;;;;;;;4.97;1.25;;;;;;;;;;4986814;28;20061;-74
2023/12/23 07:17:02;;;;;;;5.10;1.00;;;;;;;;;;4961739;28;20511;-73
2023/12/23 07:19:28;;;;;;;4.47;0.90;;;;;;;;;;4987457;28;20043;-74
2023/12/23 07:21:55;;;;;;;5.45;1.33;;;;;;;;;;4975621;28;20038;-74
2023/12/23 07:24:21;;;;;;;3.88;0.88;;;;;;;;;;4989888;28;20039;-74
2023/12/23 07:26:47;;;;;;;4.95;0.98;;;;;;;;;;4982924;28;20493;-74
2023/12/23 07:29:13;;;;;;;6.68;1.00;;;;;;;;;;4984330;28;20489;-74
2023/12/23 07:31:39;;;;;;;4.72;1.00;;;;;;;;;;4985013;28;20409;-74
2023/12/23 07:34:06;;;;;;;3.58;1.08;;;;;;;;;;4990582;28;20054;-74
2023/12/23 07:36:32;;;;;;;1.38;0.50;;;;;;;;;;4994284;28;20618;-74
2023/12/23 07:38:58;;;;;;;1.75;0.50;;;;;;;;;;4977865;28;20503;-74
2023/12/23 07:41:24;;;;;;;1.75;0.55;;;;;;;;;;4994500;28;20054;-74
2023/12/23 07:43:50;;;;;;;3.97;0.70;;;;;;;;;;4994314;28;20065;-74
2023/12/23 07:46:16;;;;;;;4.15;0.70;;;;;;;;;;4995823;28;20042;-74
2023/12/23 07:48:42;;;;;;;6.38;1.10;;;;;;;;;;4995201;28;20042;-74
2023/12/23 07:51:09;;;;;;;4.55;0.80;;;;;;;;;;4993654;28;20050;-74
2023/12/23 07:53:35;;;;;;;3.90;1.00;;;;;;;;;;4994716;28;20046;-74
2023/12/23 07:56:01;;;;;;;4.35;0.77;;;;;;;;;;4994530;28;20049;-74
2023/12/23 07:58:28;;;;;;;4.60;0.70;;;;;;;;;;4992361;28;20378;-74
2023/12/23 08:00:54;;;;;;;5.45;0.85;;;;;;;;;;4993677;28;20042;-74
2023/12/23 08:03:20;;;;;;;4.78;0.80;;;;;;;;;;4976123;28;20050;-74
2023/12/23 08:05:46;;;;;;;4.47;0.98;;;;;;;;;;4994291;28;20487;-74
2023/12/23 08:08:13;;;;;;;3.05;0.70;;;;;;;;;;4993057;28;20559;-74
2023/12/23 08:10:39;;;;;;;3.28;0.90;;;;;;;;;;4962354;28;20134;-74
2023/12/23 08:13:08;;;;;;;2.97;0.90;;;;;;;;;;4969288;28;20054;-73
2023/12/23 08:15:34;;;;;;;3.38;0.85;;;;;;;;;;4979387;28;20109;-74
2023/12/23 08:18:01;;;;;;;4.93;0.90;;;;;;;;;;4987353;28;20054;-74
2023/12/23 08:20:28;;;;;;;5.25;0.90;;;;;;;;;;4978321;28;20050;-74
2023/12/23 08:22:54;;;;;;;3.53;0.88;;;;;;;;;;4974936;28;20050;-74
2023/12/23 08:25:20;;;;;;;4.78;0.80;;;;;;;;;;4985423;28;20415;-74
2023/12/23 08:27:46;;;;;;;3.40;0.80;;;;;;;;;;4993482;28;20046;-74
2023/12/23 08:30:12;;;;;;;4.47;1.00;;;;;;;;;;4993973;28;20046;-74
2023/12/23 08:32:38;;;;;;;3.25;0.82;;;;;;;;;;4991650;28;20053;-74
2023/12/23 08:35:05;;;;;;;3.72;0.82;;;;;;;;;;4985561;28;20050;-74
2023/12/23 08:37:31;;;;;;;4.10;1.25;;;;;;;;;;4991353;28;20034;-74
2023/12/23 08:39:57;;;;;;;8.98;4.13;;;;;;;;;;4993893;28;20419;-74
2023/12/23 08:42:23;;;;;;;4.50;2.00;;;;;;;;;;4993920;28;20042;-74
2023/12/23 08:44:49;;;;;;;4.03;1.00;;;;;;;;;;4989688;28;20052;-74
2023/12/23 08:47:15;;;;;;;5.72;0.88;;;;;;;;;;4991939;28;20054;-74
2023/12/23 08:49:42;;;;;;;2.70;0.82;;;;;;;;;;4993558;28;20053;-74
2023/12/23 08:52:08;;;;;;;4.68;1.00;;;;;;;;;;4994061;28;20042;-74
2023/12/23 08:54:34;;;;;;;4.75;0.98;;;;;;;;;;4992048;28;20042;-74
2023/12/23 08:57:00;;;;;;;2.85;0.80;;;;;;;;;;4993637;28;20154;-74
2023/12/23 08:59:26;;;;;;;4.07;0.70;;;;;;;;;;4992871;28;20081;-74
2023/12/23 09:01:52;;;;;;;2.30;0.70;;;;;;;;;;4993140;28;20046;-73
2023/12/23 09:04:18;;;;;;;4.50;0.80;;;;;;;;;;4992983;28;20064;-74
2023/12/23 09:06:45;;;;;;;2.05;0.80;;;;;;;;;;4993055;28;20077;-74
2023/12/23 09:09:11;;;;;;;2.53;0.80;;;;;;;;;;4975764;28;20069;-74
2023/12/23 09:11:42;;;;;;;4.47;1.20;;;;;;;;;;4991109;28;20082;-74
2023/12/23 09:14:09;;;;;;;2.97;1.00;;;;;;;;;;4987469;28;20077;-74
2023/12/23 09:16:36;;;;;;;5.80;1.02;;;;;;;;;;4989702;28;20472;-74
2023/12/23 09:19:03;;;;;;;2.72;0.95;;;;;;;;;;4972137;28;20051;-74
2023/12/23 09:21:29;;;;;;;3.38;1.10;;;;;;;;;;4991524;28;20050;-74
2023/12/23 09:23:55;;;;;;;3.15;0.90;;;;;;;;;;4992445;28;20180;-74
2023/12/23 09:26:23;;;;;;;3.28;1.10;;;;;;;;;;4987149;28;20038;-74
2023/12/23 09:28:50;;;;;;;3.67;0.90;;;;;;;;;;4978173;28;20065;-74
2023/12/23 09:31:16;;;;;;;3.55;1.08;;;;;;;;;;4974676;28;20047;-74
2023/12/23 09:33:42;;;;;;;2.92;0.90;;;;;;;;;;4992614;28;20038;-74
2023/12/23 09:36:08;;;;;;;3.22;1.20;;;;;;;;;;4992996;28;20368;-74
2023/12/23 09:38:34;;;;;;;2.60;0.70;;;;;;;;;;4993111;28;20057;-74
2023/12/23 09:41:00;;;;;;;1.83;0.65;;;;;;;;;;4992675;28;20034;-74
2023/12/23 09:43:26;;;;;;;2.00;0.60;;;;;;;;;;4992749;28;20141;-74
2023/12/23 09:45:53;;;;;;;1.58;0.68;;;;;;;;;;4989125;28;20054;-74
2023/12/23 09:48:19;;;;;;;3.08;0.82;;;;;;;;;;4992296;28;20053;-74
2023/12/23 09:50:46;;;;;;;3.97;0.90;;;;;;;;;;4992804;28;20065;-74
2023/12/23 09:53:14;;;;;;;3.22;0.82;;;;;;;;;;4992695;28;20060;-74
2023/12/23 09:55:43;;;;;;;3.83;1.63;;;;;;;;;;4984200;28;20105;-74
2023/12/23 09:58:10;;;;;;;2.97;1.40;;;;;;;;;;4980577;28;20070;-74
2023/12/23 10:00:36;;;;;;;4.13;1.67;;;;;;;;;;4975997;28;20109;-74
2023/12/23 10:03:02;;;;;;;4.00;1.80;;;;;;;;;;4987537;28;20070;-74
2023/12/23 10:05:29;;;;;;;3.40;1.45;;;;;;;;;;4975665;28;20125;-74
2023/12/23 10:07:58;;;;;;;3.83;1.30;;;;;;;;;;4992705;28;20082;-74
2023/12/23 10:10:25;;;;;;;3.85;1.65;;;;;;;;;;4992821;28;20049;-74
2023/12/23 10:12:51;;;;;;;4.43;1.65;;;;;;;;;;4982930;28;20043;-74
2023/12/23 10:15:18;;;;;;;5.15;1.80;;;;;;;;;;4977505;28;20050;-74
2023/12/23 10:17:44;;;;;;;7.22;3.90;;;;;;;;;;4994553;28;20046;-74
2023/12/23 10:20:13;;;;;;;9.48;4.25;;;;;;;;;;4995981;28;20484;-74
2023/12/23 10:22:46;;;;;;;7.72;4.63;;;;;;;;;;4996088;28;20072;-74
2023/12/23 10:25:13;;;;;;;8.95;5.05;;;;;;;;;;4996355;28;20050;-74
2023/12/23 10:27:43;;;;;;;5.43;2.70;;;;;;;;;;4996350;28;20054;-74
2023/12/23 10:30:10;;;;;;;5.82;2.55;;;;;;;;;;4995627;28;20107;-74
2023/12/23 10:32:37;;;;;;;6.30;3.33;;;;;;;;;;4992515;28;20054;-74
2023/12/23 10:35:03;;;;;;;6.38;3.55;;;;;;;;;;4996045;28;20156;-74
2023/12/23 10:37:30;;;;;;;4.90;2.38;;;;;;;;;;4996299;28;20050;-74
2023/12/23 10:39:58;;;;;;;4.47;2.15;;;;;;;;;;4993106;28;20054;-74
2023/12/23 10:42:25;;;;;;;3.85;1.60;;;;;;;;;;4990525;28;20046;-73
2023/12/23 10:44:52;;;;;;;4.22;1.60;;;;;;;;;;4990667;28;20085;-73
2023/12/23 10:47:18;;;;;;;2.80;1.20;;;;;;;;;;4996138;28;20038;-74
2023/12/23 10:49:45;;;;;;;3.72;1.40;;;;;;;;;;4989585;28;20095;-74
2023/12/23 10:52:11;;;;;;;2.72;1.20;;;;;;;;;;4978021;28;20042;-73
2023/12/23 10:54:37;;;;;;;2.90;1.35;;;;;;;;;;4995324;28;20050;-74
2023/12/23 10:57:05;;;;;;;3.75;1.38;;;;;;;;;;4995084;28;20409;-74
2023/12/23 10:59:31;;;;;;;4.00;1.67;;;;;;;;;;4995530;28;20042;-74
2023/12/23 11:01:57;;;;;;;4.03;1.73;;;;;;;;;;4993760;28;20045;-74
2023/12/23 11:04:27;;;;;;;3.53;1.52;;;;;;;;;;4981835;28;20042;-74
2023/12/23 11:06:53;;;;;;;3.20;1.38;;;;;;;;;;4976391;28;20051;-74
2023/12/23 11:09:21;;;;;;;3.42;1.20;;;;;;;;;;4978306;28;20053;-74
2023/12/23 11:11:47;;;;;;;3.25;1.15;;;;;;;;;;4987274;28;20046;-74
2023/12/23 11:14:14;;;;;;;3.10;1.20;;;;;;;;;;4981381;28;20069;-74
2023/12/23 11:16:40;;;;;;;2.53;0.98;;;;;;;;;;4992051;28;20137;-74
2023/12/23 11:19:06;;;;;;;2.75;1.00;;;;;;;;;;4993715;28;20046;-73
2023/12/23 11:21:34;;;;;;;2.83;1.10;;;;;;;;;;4995317;28;20108;-74
2023/12/23 11:24:01;;;;;;;2.30;0.98;;;;;;;;;;4994672;28;20511;-74
2023/12/23 11:26:39;;;;;;;3.28;0.98;;;;;;;;;;4984100;28;20401;-74
2023/12/23 11:29:05;;;;;;;2.97;1.30;;;;;;;;;;4975891;28;20057;-74
2023/12/23 11:31:31;;;;;;;3.75;1.33;;;;;;;;;;4989535;28;20109;-74
2023/12/23 11:34:00;;;;;;;3.15;1.20;;;;;;;;;;4992603;28;20054;-74
2023/12/23 11:36:27;;;;;;;2.42;1.00;;;;;;;;;;4990145;28;20050;-74
2023/12/23 11:38:53;;;;;;;2.88;1.20;;;;;;;;;;4978321;28;20374;-74
2023/12/23 11:41:20;;;;;;;4.00;1.63;;;;;;;;;;4994735;28;20046;-74
2023/12/23 11:43:47;;;;;;;2.63;1.00;;;;;;;;;;4994615;28;20054;-74
2023/12/23 11:46:13;;;;;;;2.90;1.10;;;;;;;;;;4978740;28;20489;-74
2023/12/23 11:48:40;;;;;;;4.18;1.40;;;;;;;;;;4987656;28;20054;-74
2023/12/23 11:51:09;;;;;;;3.08;1.20;;;;;;;;;;4990268;28;20053;-74
2023/12/23 11:53:35;;;;;;;3.05;1.20;;;;;;;;;;4994140;28;20096;-74
2023/12/23 11:56:01;;;;;;;2.80;1.00;;;;;;;;;;4994992;28;20451;-74
2023/12/23 11:58:28;;;;;;;1.65;0.75;;;;;;;;;;4991433;28;20054;-74
2023/12/23 12:00:54;;;;;;;2.70;0.82;;;;;;;;;;4992742;28;20050;-74
2023/12/23 12:03:24;;;;;;;1.70;0.80;;;;;;;;;;4993507;28;20050;-74
2023/12/23 12:05:57;;;;;;;2.40;1.00;;;;;;;;;;4990111;28;20085;-73
2023/12/23 12:08:23;;;;;;;2.22;0.90;;;;;;;;;;4992973;28;20039;-73
2023/12/23 12:10:49;;;;;;;2.40;1.23;;;;;;;;;;4993832;28;20046;-74
2023/12/23 12:13:16;;;;;;;3.38;1.40;;;;;;;;;;4994607;28;20557;-74
2023/12/23 12:15:42;;;;;;;3.30;1.50;;;;;;;;;;4993294;28;20058;-74
2023/12/23 12:18:08;;;;;;;4.72;1.60;;;;;;;;;;4994068;28;20058;-74
2023/12/23 12:20:34;;;;;;;3.25;1.45;;;;;;;;;;4992284;28;20052;-74
2023/12/23 12:23:04;;;;;;;3.33;1.27;;;;;;;;;;4993184;28;20057;-74
2023/12/23 12:25:30;;;;;;;4.00;1.77;;;;;;;;;;4993391;28;20447;-74
2023/12/23 12:27:56;;;;;;;3.80;1.55;;;;;;;;;;4992741;28;20042;-74
2023/12/23 12:30:23;;;;;;;4.13;1.60;;;;;;;;;;4994353;28;20045;-74
2023/12/23 12:32:49;;;;;;;3.53;1.50;;;;;;;;;;4993986;28;20065;-74
2023/12/23 12:35:16;;;;;;;3.35;1.20;;;;;;;;;;4991283;28;20081;-74
2023/12/23 12:37:43;;;;;;;3.35;1.30;;;;;;;;;;4974681;28;20053;-74
2023/12/23 12:40:12;;;;;;;3.13;1.40;;;;;;;;;;4983455;28;20046;-74
2023/12/23 12:42:38;;;;;;;4.25;1.50;;;;;;;;;;4992436;28;20133;-74
2023/12/23 12:45:05;;;;;;;3.67;1.40;;;;;;;;;;4988544;28;20142;-74
2023/12/23 12:47:31;;;;;;;3.90;1.50;;;;;;;;;;4987875;28;20058;-74
2023/12/23 12:50:05;;;;;;;4.15;1.50;;;;;;;;;;4993879;28;20046;-74
2023/12/23 12:52:32;;;;;;;3.50;1.40;;;;;;;;;;4993924;28;20341;-74
2023/12/23 12:54:58;;;;;;;3.85;1.60;;;;;;;;;;4990280;28;20396;-74
2023/12/23 12:57:25;;;;;;;4.10;1.90;;;;;;;;;;4992616;28;20398;-74
2023/12/23 12:59:51;;;;;;;4.25;1.88;;;;;;;;;;4975163;28;20068;-74
2023/12/23 13:02:18;;;;;;;5.03;2.10;;;;;;;;;;4980779;28;20050;-74
2023/12/23 13:04:45;;;;;;;6.35;2.17;;;;;;;;;;4977483;28;20058;-74
2023/12/23 13:07:11;;;;;;;4.70;2.22;;;;;;;;;;4976900;28;20072;-74
2023/12/23 13:09:37;;;;;;;6.13;2.40;;;;;;;;;;4993251;28;20061;-73
2023/12/23 13:12:04;;;;;;;7.70;2.53;;;;;;;;;;4991654;28;20046;-74
2023/12/23 13:14:30;;;;;;;9.57;2.67;;;;;;;;;;4991095;28;20085;-73
2023/12/23 13:16:56;;;;;;;8.30;2.72;;;;;;;;;;4990539;28;20055;-73
2023/12/23 13:19:22;;;;;;;14.80;3.28;;;;;;;;;;4993330;28;20054;-73
2023/12/23 13:21:49;;;;;;;15.05;2.90;;;;;;;;;;4974997;28;20049;-73
2023/12/23 13:24:15;;;;;;;23.05;3.28;;;;;;;;;;4983734;28;20089;-73
2023/12/23 13:26:41;;;;;;;24.27;3.90;;;;;;;;;;4993257;28;20097;-73
2023/12/23 13:29:08;;;;;;;22.75;3.33;;;;;;;;;;4993007;28;20081;-73
2023/12/23 13:31:34;;;;;;;24.23;3.80;;;;;;;;;;4977503;28;20055;-73
2023/12/23 13:34:00;;;;;;;32.85;3.88;;;;;;;;;;4973820;28;20050;-73
2023/12/23 13:36:26;;;;;;;31.08;4.22;;;;;;;;;;4972957;28;20381;-73
2023/12/23 13:38:52;;;;;;;41.60;4.20;;;;;;;;;;4973364;28;20085;-73
2023/12/23 13:41:25;;;;;;;31.75;4.95;;;;;;;;;;4958988;28;20051;-73
2023/12/23 13:43:51;;;;;;;27.35;4.10;;;;;;;;;;4979982;28;20059;-74
2023/12/23 13:46:17;;;;;;;32.20;4.25;;;;;;;;;;4993039;28;20050;-74
2023/12/23 13:48:43;;;;;;;23.02;4.40;;;;;;;;;;4984983;28;20057;-74
2023/12/23 13:51:09;;;;;;;31.35;4.28;;;;;;;;;;4975327;28;20042;-73
2023/12/23 13:53:35;;;;;;;31.95;4.65;;;;;;;;;;4992666;28;20096;-73
2023/12/23 13:56:05;;;;;;;27.75;4.07;;;;;;;;;;4992965;28;20056;-74
2023/12/23 13:58:31;;;;;;;26.30;3.95;;;;;;;;;;4989436;28;20073;-74
2023/12/23 14:00:58;;;;;;;26.50;3.53;;;;;;;;;;4976611;28;20047;-73
2023/12/23 14:03:24;;;;;;;22.45;3.90;;;;;;;;;;4991541;28;20125;-74
2023/12/23 14:05:50;;;;;;;20.42;3.30;;;;;;;;;;4978405;28;20157;-73
2023/12/23 14:08:16;;;;;;;22.98;3.70;;;;;;;;;;4973037;28;20129;-74
2023/12/23 14:10:44;;;;;;;27.30;3.60;;;;;;;;;;4984860;28;20054;-74
2023/12/23 14:13:10;;;;;;;25.98;3.47;;;;;;;;;;4989660;28;20502;-74
2023/12/23 14:15:36;;;;;;;29.15;4.15;;;;;;;;;;4990687;28;20050;-74
2023/12/23 14:18:03;;;;;;;27.83;4.15;;;;;;;;;;4992039;28;20053;-74
2023/12/23 14:20:29;;;;;;;29.42;5.10;;;;;;;;;;4973521;28;20057;-74
2023/12/23 14:22:56;;;;;;;24.05;3.65;;;;;;;;;;4992826;28;20046;-74
2023/12/23 14:25:23;;;;;;;23.15;3.42;;;;;;;;;;4991288;28;20046;-74
2023/12/23 14:27:49;;;;;;;27.55;3.50;;;;;;;;;;4992650;28;20042;-74
2023/12/23 14:30:16;;;;;;;26.95;3.50;;;;;;;;;;4992287;28;20342;-74